sensor_id;sensor_type;location;lat;lon;timestamp;P1;durP1;ratioP1;P2;durP2;ratioP2
31262;SDS011;17892;52.080;9.006;2023-01-29T00:02:08;17.00;;;9.27;;
31262;SDS011;17892;52.080;9.006;2023-01-29T00:04:33;17.50;;;9.80;;
31262;SDS011;17892;52.080;9.006;2023-01-29T00:06:59;16.33;;;9.05;;
31262;SDS011;17892;52.080;9.006;2023-01-29T00:09:24;14.32;;;7.95;;
31262;SDS011;17892;52.080;9.006;2023-01-29T00:11:51;15.93;;;8.85;;
31262;SDS011;17892;52.080;9.006;2023-01-29T00:14:17;15.77;;;8.32;;
31262;SDS011;17892;52.080;9.006;2023-01-29T00:16:43;19.58;;;9.70;;
31262;SDS011;17892;52.080;9.006;2023-01-29T00:19:09;17.48;;;9.45;;
31262;SDS011;17892;52.080;9.006;2023-01-29T00:21:35;16.70;;;9.15;;
31262;SDS011;17892;52.080;9.006;2023-01-29T00:24:01;17.50;;;9.43;;
31262;SDS011;17892;52.080;9.006;2023-01-29T00:26:27;22.50;;;10.95;;
31262;SDS011;17892;52.080;9.006;2023-01-29T00:28:52;19.45;;;10.25;;
31262;SDS011;17892;52.080;9.006;2023-01-29T00:31:21;14.95;;;7.70;;
31262;SDS011;17892;52.080;9.006;2023-01-29T00:33:49;15.95;;;8.45;;
31262;SDS011;17892;52.080;9.006;2023-01-29T00:36:17;14.95;;;8.05;;
31262;SDS011;17892;52.080;9.006;2023-01-29T00:38:44;16.92;;;7.85;;
31262;SDS011;17892;52.080;9.006;2023-01-29T00:41:18;15.20;;;7.32;;
31262;SDS011;17892;52.080;9.006;2023-01-29T00:44:04;15.60;;;8.13;;
31262;SDS011;17892;52.080;9.006;2023-01-29T00:46:49;12.05;;;7.22;;
31262;SDS011;17892;52.080;9.006;2023-01-29T00:49:15;13.18;;;7.35;;
31262;SDS011;17892;52.080;9.006;2023-01-29T00:51:41;12.80;;;6.93;;
31262;SDS011;17892;52.080;9.006;2023-01-29T00:54:07;19.27;;;9.32;;
31262;SDS011;17892;52.080;9.006;2023-01-29T00:56:33;15.43;;;8.07;;
31262;SDS011;17892;52.080;9.006;2023-01-29T00:59:01;15.88;;;8.15;;
31262;SDS011;17892;52.080;9.006;2023-01-29T01:01:28;14.65;;;7.57;;
31262;SDS011;17892;52.080;9.006;2023-01-29T01:04:12;14.77;;;7.60;;
31262;SDS011;17892;52.080;9.006;2023-01-29T01:06:39;12.30;;;6.07;;
31262;SDS011;17892;52.080;9.006;2023-01-29T01:09:07;13.27;;;7.75;;
31262;SDS011;17892;52.080;9.006;2023-01-29T01:11:54;12.95;;;6.50;;
31262;SDS011;17892;52.080;9.006;2023-01-29T01:14:20;15.05;;;7.78;;
31262;SDS011;17892;52.080;9.006;2023-01-29T01:16:46;14.90;;;8.32;;
31262;SDS011;17892;52.080;9.006;2023-01-29T01:19:13;16.27;;;8.40;;
31262;SDS011;17892;52.080;9.006;2023-01-29T01:21:40;17.63;;;8.98;;
31262;SDS011;17892;52.080;9.006;2023-01-29T01:24:09;16.73;;;8.45;;
31262;SDS011;17892;52.080;9.006;2023-01-29T01:26:36;16.67;;;8.05;;
31262;SDS011;17892;52.080;9.006;2023-01-29T01:29:02;17.10;;;9.18;;
31262;SDS011;17892;52.080;9.006;2023-01-29T01:31:27;18.90;;;8.90;;
31262;SDS011;17892;52.080;9.006;2023-01-29T01:33:53;17.02;;;8.95;;
31262;SDS011;17892;52.080;9.006;2023-01-29T01:36:19;15.23;;;8.20;;
31262;SDS011;17892;52.080;9.006;2023-01-29T01:38:45;17.83;;;8.10;;
31262;SDS011;17892;52.080;9.006;2023-01-29T01:41:11;16.92;;;8.18;;
31262;SDS011;17892;52.080;9.006;2023-01-29T01:46:18;16.08;;;9.18;;
31262;SDS011;17892;52.080;9.006;2023-01-29T01:48:44;17.85;;;9.07;;
31262;SDS011;17892;52.080;9.006;2023-01-29T01:51:17;17.58;;;9.75;;
31262;SDS011;17892;52.080;9.006;2023-01-29T01:53:56;19.45;;;9.70;;
31262;SDS011;17892;52.080;9.006;2023-01-29T01:56:29;17.40;;;9.18;;
31262;SDS011;17892;52.080;9.006;2023-01-29T01:59:06;15.95;;;7.93;;
31262;SDS011;17892;52.080;9.006;2023-01-29T02:01:35;18.33;;;8.80;;
31262;SDS011;17892;52.080;9.006;2023-01-29T02:04:05;14.13;;;8.05;;
31262;SDS011;17892;52.080;9.006;2023-01-29T02:06:52;16.65;;;8.13;;
31262;SDS011;17892;52.080;9.006;2023-01-29T02:09:40;17.23;;;8.52;;
31262;SDS011;17892;52.080;9.006;2023-01-29T02:12:17;16.63;;;8.27;;
31262;SDS011;17892;52.080;9.006;2023-01-29T02:14:43;17.35;;;9.50;;
31262;SDS011;17892;52.080;9.006;2023-01-29T02:17:10;16.33;;;8.50;;
31262;SDS011;17892;52.080;9.006;2023-01-29T02:28:54;17.85;;;8.63;;
31262;SDS011;17892;52.080;9.006;2023-01-29T02:35:27;17.15;;;8.77;;
31262;SDS011;17892;52.080;9.006;2023-01-29T02:41:24;14.60;;;7.35;;
31262;SDS011;17892;52.080;9.006;2023-01-29T02:46:55;19.10;;;10.68;;
31262;SDS011;17892;52.080;9.006;2023-01-29T02:49:43;19.58;;;10.38;;
31262;SDS011;17892;52.080;9.006;2023-01-29T02:52:37;15.60;;;8.63;;
31262;SDS011;17892;52.080;9.006;2023-01-29T02:55:31;13.73;;;7.45;;
31262;SDS011;17892;52.080;9.006;2023-01-29T02:58:03;15.52;;;7.95;;
31262;SDS011;17892;52.080;9.006;2023-01-29T03:00:42;16.73;;;8.02;;
31262;SDS011;17892;52.080;9.006;2023-01-29T03:03:13;16.23;;;8.02;;
31262;SDS011;17892;52.080;9.006;2023-01-29T03:06:05;17.83;;;8.80;;
31262;SDS011;17892;52.080;9.006;2023-01-29T03:08:43;17.52;;;8.25;;
31262;SDS011;17892;52.080;9.006;2023-01-29T03:11:15;15.27;;;7.57;;
31262;SDS011;17892;52.080;9.006;2023-01-29T03:13:58;24.60;;;11.35;;
31262;SDS011;17892;52.080;9.006;2023-01-29T03:16:34;18.42;;;8.50;;
31262;SDS011;17892;52.080;9.006;2023-01-29T03:19:14;15.10;;;7.13;;
31262;SDS011;17892;52.080;9.006;2023-01-29T03:21:57;18.48;;;8.82;;
31262;SDS011;17892;52.080;9.006;2023-01-29T03:24:59;17.98;;;9.05;;
31262;SDS011;17892;52.080;9.006;2023-01-29T03:27:48;19.95;;;9.23;;
31262;SDS011;17892;52.080;9.006;2023-01-29T03:30:42;22.02;;;9.88;;
31262;SDS011;17892;52.080;9.006;2023-01-29T03:33:45;21.45;;;9.07;;
31262;SDS011;17892;52.080;9.006;2023-01-29T03:36:20;22.63;;;9.30;;
31262;SDS011;17892;52.080;9.006;2023-01-29T03:39:01;20.98;;;9.75;;
31262;SDS011;17892;52.080;9.006;2023-01-29T03:46:55;22.15;;;9.70;;
31262;SDS011;17892;52.080;9.006;2023-01-29T03:52:29;19.17;;;8.73;;
31262;SDS011;17892;52.080;9.006;2023-01-29T03:58:11;21.42;;;9.60;;
31262;SDS011;17892;52.080;9.006;2023-01-29T04:00:54;22.42;;;9.43;;
31262;SDS011;17892;52.080;9.006;2023-01-29T04:03:33;21.27;;;9.75;;
31262;SDS011;17892;52.080;9.006;2023-01-29T04:06:17;23.42;;;11.70;;
31262;SDS011;17892;52.080;9.006;2023-01-29T04:11:32;24.15;;;12.00;;
31262;SDS011;17892;52.080;9.006;2023-01-29T04:14:02;23.52;;;10.00;;
31262;SDS011;17892;52.080;9.006;2023-01-29T04:16:40;22.80;;;10.50;;
31262;SDS011;17892;52.080;9.006;2023-01-29T04:19:11;23.83;;;11.02;;
31262;SDS011;17892;52.080;9.006;2023-01-29T04:21:37;20.35;;;9.73;;
31262;SDS011;17892;52.080;9.006;2023-01-29T04:24:04;29.25;;;13.60;;
31262;SDS011;17892;52.080;9.006;2023-01-29T04:26:33;30.17;;;14.00;;
31262;SDS011;17892;52.080;9.006;2023-01-29T04:32:15;20.92;;;10.55;;
31262;SDS011;17892;52.080;9.006;2023-01-29T04:34:49;23.48;;;11.48;;
31262;SDS011;17892;52.080;9.006;2023-01-29T04:57:04;29.30;;;13.50;;
31262;SDS011;17892;52.080;9.006;2023-01-29T04:59:56;27.40;;;13.30;;
31262;SDS011;17892;52.080;9.006;2023-01-29T05:02:37;28.13;;;12.75;;
31262;SDS011;17892;52.080;9.006;2023-01-29T05:05:05;27.52;;;12.13;;
31262;SDS011;17892;52.080;9.006;2023-01-29T05:07:32;25.67;;;12.60;;
31262;SDS011;17892;52.080;9.006;2023-01-29T05:10:02;28.10;;;11.85;;
31262;SDS011;17892;52.080;9.006;2023-01-29T05:12:31;25.73;;;10.70;;
31262;SDS011;17892;52.080;9.006;2023-01-29T05:14:59;27.83;;;12.48;;
31262;SDS011;17892;52.080;9.006;2023-01-29T05:17:27;25.27;;;12.65;;
31262;SDS011;17892;52.080;9.006;2023-01-29T05:19:54;27.25;;;12.50;;
31262;SDS011;17892;52.080;9.006;2023-01-29T05:22:20;28.02;;;12.98;;
31262;SDS011;17892;52.080;9.006;2023-01-29T05:24:47;26.08;;;11.07;;
31262;SDS011;17892;52.080;9.006;2023-01-29T05:27:16;23.30;;;11.52;;
31262;SDS011;17892;52.080;9.006;2023-01-29T05:30:05;25.50;;;12.07;;
31262;SDS011;17892;52.080;9.006;2023-01-29T05:32:32;22.40;;;11.07;;
31262;SDS011;17892;52.080;9.006;2023-01-29T05:34:58;22.90;;;10.27;;
31262;SDS011;17892;52.080;9.006;2023-01-29T05:37:24;21.83;;;10.68;;
31262;SDS011;17892;52.080;9.006;2023-01-29T05:39:49;19.13;;;9.38;;
31262;SDS011;17892;52.080;9.006;2023-01-29T05:42:15;28.27;;;12.02;;
31262;SDS011;17892;52.080;9.006;2023-01-29T05:44:41;23.85;;;11.77;;
31262;SDS011;17892;52.080;9.006;2023-01-29T05:47:06;19.73;;;10.25;;
31262;SDS011;17892;52.080;9.006;2023-01-29T05:49:32;22.83;;;10.60;;
31262;SDS011;17892;52.080;9.006;2023-01-29T05:51:58;26.98;;;11.55;;
31262;SDS011;17892;52.080;9.006;2023-01-29T05:54:23;28.35;;;12.48;;
31262;SDS011;17892;52.080;9.006;2023-01-29T05:56:49;24.05;;;11.32;;
31262;SDS011;17892;52.080;9.006;2023-01-29T05:59:15;22.77;;;11.73;;
31262;SDS011;17892;52.080;9.006;2023-01-29T06:01:41;26.25;;;12.50;;
31262;SDS011;17892;52.080;9.006;2023-01-29T06:04:06;24.10;;;10.95;;
31262;SDS011;17892;52.080;9.006;2023-01-29T06:06:32;18.98;;;8.95;;
31262;SDS011;17892;52.080;9.006;2023-01-29T06:08:58;25.60;;;10.88;;
31262;SDS011;17892;52.080;9.006;2023-01-29T06:11:24;24.30;;;10.88;;
31262;SDS011;17892;52.080;9.006;2023-01-29T06:13:50;21.80;;;9.93;;
31262;SDS011;17892;52.080;9.006;2023-01-29T06:16:15;23.35;;;11.38;;
31262;SDS011;17892;52.080;9.006;2023-01-29T06:18:41;25.42;;;12.23;;
31262;SDS011;17892;52.080;9.006;2023-01-29T06:21:08;32.35;;;13.65;;
31262;SDS011;17892;52.080;9.006;2023-01-29T06:23:36;26.88;;;11.25;;
31262;SDS011;17892;52.080;9.006;2023-01-29T06:26:03;27.77;;;12.18;;
31262;SDS011;17892;52.080;9.006;2023-01-29T06:28:31;25.15;;;11.65;;
31262;SDS011;17892;52.080;9.006;2023-01-29T06:30:57;31.55;;;15.15;;
31262;SDS011;17892;52.080;9.006;2023-01-29T06:33:25;25.45;;;11.80;;
31262;SDS011;17892;52.080;9.006;2023-01-29T06:35:55;24.35;;;11.07;;
31262;SDS011;17892;52.080;9.006;2023-01-29T06:38:25;17.83;;;9.05;;
31262;SDS011;17892;52.080;9.006;2023-01-29T06:40:52;24.50;;;10.57;;
31262;SDS011;17892;52.080;9.006;2023-01-29T06:43:18;24.23;;;11.50;;
31262;SDS011;17892;52.080;9.006;2023-01-29T06:45:48;25.55;;;11.52;;
31262;SDS011;17892;52.080;9.006;2023-01-29T06:48:18;26.20;;;12.10;;
31262;SDS011;17892;52.080;9.006;2023-01-29T06:50:44;27.90;;;13.20;;
31262;SDS011;17892;52.080;9.006;2023-01-29T06:53:10;32.70;;;13.68;;
31262;SDS011;17892;52.080;9.006;2023-01-29T06:55:36;34.92;;;15.40;;
31262;SDS011;17892;52.080;9.006;2023-01-29T06:58:06;36.50;;;14.45;;
31262;SDS011;17892;52.080;9.006;2023-01-29T07:00:33;34.25;;;15.50;;
31262;SDS011;17892;52.080;9.006;2023-01-29T07:02:59;33.85;;;13.45;;
31262;SDS011;17892;52.080;9.006;2023-01-29T07:05:25;32.00;;;13.82;;
31262;SDS011;17892;52.080;9.006;2023-01-29T07:07:51;33.45;;;14.27;;
31262;SDS011;17892;52.080;9.006;2023-01-29T07:10:17;30.90;;;13.73;;
31262;SDS011;17892;52.080;9.006;2023-01-29T07:12:43;32.72;;;13.73;;
31262;SDS011;17892;52.080;9.006;2023-01-29T07:15:08;30.88;;;14.57;;
31262;SDS011;17892;52.080;9.006;2023-01-29T07:17:36;23.67;;;11.30;;
31262;SDS011;17892;52.080;9.006;2023-01-29T07:20:03;24.98;;;10.00;;
31262;SDS011;17892;52.080;9.006;2023-01-29T07:22:30;27.20;;;12.52;;
31262;SDS011;17892;52.080;9.006;2023-01-29T07:24:56;28.73;;;13.02;;
31262;SDS011;17892;52.080;9.006;2023-01-29T07:27:22;27.10;;;11.27;;
31262;SDS011;17892;52.080;9.006;2023-01-29T07:29:48;24.75;;;10.85;;
31262;SDS011;17892;52.080;9.006;2023-01-29T07:32:14;24.90;;;11.98;;
31262;SDS011;17892;52.080;9.006;2023-01-29T07:34:39;28.50;;;13.45;;
31262;SDS011;17892;52.080;9.006;2023-01-29T07:37:05;25.45;;;12.82;;
31262;SDS011;17892;52.080;9.006;2023-01-29T07:39:31;30.20;;;13.77;;
31262;SDS011;17892;52.080;9.006;2023-01-29T07:41:57;24.77;;;12.60;;
31262;SDS011;17892;52.080;9.006;2023-01-29T07:44:22;22.60;;;11.05;;
31262;SDS011;17892;52.080;9.006;2023-01-29T07:46:48;28.88;;;14.18;;
31262;SDS011;17892;52.080;9.006;2023-01-29T07:49:14;26.10;;;11.52;;
31262;SDS011;17892;52.080;9.006;2023-01-29T07:51:40;28.95;;;13.07;;
31262;SDS011;17892;52.080;9.006;2023-01-29T07:54:06;27.10;;;12.55;;
31262;SDS011;17892;52.080;9.006;2023-01-29T07:56:32;27.73;;;13.25;;
31262;SDS011;17892;52.080;9.006;2023-01-29T07:58:57;24.25;;;11.02;;
31262;SDS011;17892;52.080;9.006;2023-01-29T08:01:23;30.13;;;13.45;;
31262;SDS011;17892;52.080;9.006;2023-01-29T08:03:49;25.23;;;13.05;;
31262;SDS011;17892;52.080;9.006;2023-01-29T08:06:15;27.50;;;13.30;;
31262;SDS011;17892;52.080;9.006;2023-01-29T08:08:40;23.48;;;10.45;;
31262;SDS011;17892;52.080;9.006;2023-01-29T08:11:06;26.98;;;13.98;;
31262;SDS011;17892;52.080;9.006;2023-01-29T08:13:32;28.90;;;14.02;;
31262;SDS011;17892;52.080;9.006;2023-01-29T08:15:58;31.13;;;15.18;;
31262;SDS011;17892;52.080;9.006;2023-01-29T08:18:26;32.10;;;14.25;;
31262;SDS011;17892;52.080;9.006;2023-01-29T08:20:52;27.50;;;11.75;;
31262;SDS011;17892;52.080;9.006;2023-01-29T08:23:23;30.85;;;14.18;;
31262;SDS011;17892;52.080;9.006;2023-01-29T08:25:48;24.00;;;12.20;;
31262;SDS011;17892;52.080;9.006;2023-01-29T08:28:14;20.67;;;9.90;;
31262;SDS011;17892;52.080;9.006;2023-01-29T08:30:40;20.08;;;8.65;;
31262;SDS011;17892;52.080;9.006;2023-01-29T08:33:07;27.88;;;12.38;;
31262;SDS011;17892;52.080;9.006;2023-01-29T08:35:33;23.00;;;10.57;;
31262;SDS011;17892;52.080;9.006;2023-01-29T08:38:00;25.48;;;11.77;;
31262;SDS011;17892;52.080;9.006;2023-01-29T08:40:29;33.13;;;12.93;;
31262;SDS011;17892;52.080;9.006;2023-01-29T08:43:00;28.95;;;12.40;;
31262;SDS011;17892;52.080;9.006;2023-01-29T08:45:31;34.72;;;13.65;;
31262;SDS011;17892;52.080;9.006;2023-01-29T08:47:59;27.52;;;11.52;;
31262;SDS011;17892;52.080;9.006;2023-01-29T08:50:24;27.40;;;11.48;;
31262;SDS011;17892;52.080;9.006;2023-01-29T08:52:50;27.83;;;11.10;;
31262;SDS011;17892;52.080;9.006;2023-01-29T08:55:21;28.05;;;12.82;;
31262;SDS011;17892;52.080;9.006;2023-01-29T08:57:47;27.90;;;12.35;;
31262;SDS011;17892;52.080;9.006;2023-01-29T09:00:13;24.85;;;11.70;;
31262;SDS011;17892;52.080;9.006;2023-01-29T09:02:39;31.67;;;13.63;;
31262;SDS011;17892;52.080;9.006;2023-01-29T09:05:05;29.10;;;13.05;;
31262;SDS011;17892;52.080;9.006;2023-01-29T09:07:31;25.20;;;10.68;;
31262;SDS011;17892;52.080;9.006;2023-01-29T09:09:57;27.42;;;12.52;;
31262;SDS011;17892;52.080;9.006;2023-01-29T09:12:23;29.80;;;13.23;;
31262;SDS011;17892;52.080;9.006;2023-01-29T09:14:49;26.13;;;11.40;;
31262;SDS011;17892;52.080;9.006;2023-01-29T09:17:15;24.48;;;11.00;;
31262;SDS011;17892;52.080;9.006;2023-01-29T09:19:40;29.25;;;13.27;;
31262;SDS011;17892;52.080;9.006;2023-01-29T09:22:06;32.30;;;14.07;;
31262;SDS011;17892;52.080;9.006;2023-01-29T09:24:32;26.65;;;10.02;;
31262;SDS011;17892;52.080;9.006;2023-01-29T09:26:59;28.02;;;11.40;;
31262;SDS011;17892;52.080;9.006;2023-01-29T09:29:25;31.98;;;14.95;;
31262;SDS011;17892;52.080;9.006;2023-01-29T09:31:51;35.05;;;16.33;;
31262;SDS011;17892;52.080;9.006;2023-01-29T09:34:16;26.08;;;12.40;;
31262;SDS011;17892;52.080;9.006;2023-01-29T09:36:42;30.63;;;13.65;;
31262;SDS011;17892;52.080;9.006;2023-01-29T09:39:08;27.58;;;12.68;;
31262;SDS011;17892;52.080;9.006;2023-01-29T09:44:51;26.63;;;10.88;;
31262;SDS011;17892;52.080;9.006;2023-01-29T09:47:36;29.05;;;12.35;;
31262;SDS011;17892;52.080;9.006;2023-01-29T09:50:12;28.67;;;13.23;;
31262;SDS011;17892;52.080;9.006;2023-01-29T09:52:54;30.77;;;13.02;;
31262;SDS011;17892;52.080;9.006;2023-01-29T09:55:48;23.77;;;10.35;;
31262;SDS011;17892;52.080;9.006;2023-01-29T09:58:31;28.45;;;12.35;;
31262;SDS011;17892;52.080;9.006;2023-01-29T10:03:36;32.20;;;14.02;;
31262;SDS011;17892;52.080;9.006;2023-01-29T10:18:11;34.78;;;14.60;;
31262;SDS011;17892;52.080;9.006;2023-01-29T10:21:03;31.67;;;13.90;;
31262;SDS011;17892;52.080;9.006;2023-01-29T10:24:18;34.78;;;15.90;;
31262;SDS011;17892;52.080;9.006;2023-01-29T10:26:52;28.33;;;13.25;;
31262;SDS011;17892;52.080;9.006;2023-01-29T10:29:20;27.25;;;13.23;;
31262;SDS011;17892;52.080;9.006;2023-01-29T10:31:47;30.20;;;13.68;;
31262;SDS011;17892;52.080;9.006;2023-01-29T10:34:24;35.65;;;14.70;;
31262;SDS011;17892;52.080;9.006;2023-01-29T10:36:58;28.25;;;12.50;;
31262;SDS011;17892;52.080;9.006;2023-01-29T10:39:24;27.05;;;12.70;;
31262;SDS011;17892;52.080;9.006;2023-01-29T10:42:05;29.25;;;11.98;;
31262;SDS011;17892;52.080;9.006;2023-01-29T10:45:04;23.45;;;11.00;;
31262;SDS011;17892;52.080;9.006;2023-01-29T10:48:08;20.27;;;10.55;;
31262;SDS011;17892;52.080;9.006;2023-01-29T10:51:12;21.70;;;10.13;;
31262;SDS011;17892;52.080;9.006;2023-01-29T10:56:57;17.55;;;8.52;;
31262;SDS011;17892;52.080;9.006;2023-01-29T11:02:21;25.92;;;11.13;;
31262;SDS011;17892;52.080;9.006;2023-01-29T11:04:46;24.00;;;12.43;;
31262;SDS011;17892;52.080;9.006;2023-01-29T11:07:13;24.80;;;11.18;;
31262;SDS011;17892;52.080;9.006;2023-01-29T11:09:48;19.70;;;10.48;;
31262;SDS011;17892;52.080;9.006;2023-01-29T11:12:30;20.52;;;9.52;;
31262;SDS011;17892;52.080;9.006;2023-01-29T11:15:04;21.85;;;11.18;;
31262;SDS011;17892;52.080;9.006;2023-01-29T11:17:54;21.25;;;8.68;;
31262;SDS011;17892;52.080;9.006;2023-01-29T11:20:28;21.35;;;10.57;;
31262;SDS011;17892;52.080;9.006;2023-01-29T11:22:55;21.25;;;10.25;;
31262;SDS011;17892;52.080;9.006;2023-01-29T11:25:21;22.65;;;10.60;;
31262;SDS011;17892;52.080;9.006;2023-01-29T11:27:52;18.60;;;8.63;;
31262;SDS011;17892;52.080;9.006;2023-01-29T11:30:31;17.92;;;8.85;;
31262;SDS011;17892;52.080;9.006;2023-01-29T11:33:34;21.52;;;10.00;;
31262;SDS011;17892;52.080;9.006;2023-01-29T11:35:54;21.63;;;9.82;;
31262;SDS011;17892;52.080;9.006;2023-01-29T11:38:22;19.17;;;8.68;;
31262;SDS011;17892;52.080;9.006;2023-01-29T11:40:50;20.35;;;10.02;;
31262;SDS011;17892;52.080;9.006;2023-01-29T11:46:01;17.23;;;8.40;;
31262;SDS011;17892;52.080;9.006;2023-01-29T11:48:46;17.73;;;8.52;;
31262;SDS011;17892;52.080;9.006;2023-01-29T11:51:22;18.90;;;8.55;;
31262;SDS011;17892;52.080;9.006;2023-01-29T11:53:52;19.23;;;9.38;;
31262;SDS011;17892;52.080;9.006;2023-01-29T11:56:28;18.80;;;8.88;;
31262;SDS011;17892;52.080;9.006;2023-01-29T12:05:01;18.42;;;10.00;;
31262;SDS011;17892;52.080;9.006;2023-01-29T12:07:31;17.63;;;9.02;;
31262;SDS011;17892;52.080;9.006;2023-01-29T12:09:58;22.02;;;11.55;;
31262;SDS011;17892;52.080;9.006;2023-01-29T12:12:31;22.38;;;9.95;;
31262;SDS011;17892;52.080;9.006;2023-01-29T12:17:39;20.55;;;10.13;;
31262;SDS011;17892;52.080;9.006;2023-01-29T12:20:13;20.98;;;10.35;;
31262;SDS011;17892;52.080;9.006;2023-01-29T12:37:22;21.25;;;10.32;;
31262;SDS011;17892;52.080;9.006;2023-01-29T12:40:12;19.35;;;8.93;;
31262;SDS011;17892;52.080;9.006;2023-01-29T12:42:40;18.15;;;9.07;;
31262;SDS011;17892;52.080;9.006;2023-01-29T12:45:14;20.00;;;9.15;;
31262;SDS011;17892;52.080;9.006;2023-01-29T12:47:46;23.60;;;11.27;;
31262;SDS011;17892;52.080;9.006;2023-01-29T12:50:20;19.27;;;8.98;;
31262;SDS011;17892;52.080;9.006;2023-01-29T12:52:58;22.63;;;11.15;;
31262;SDS011;17892;52.080;9.006;2023-01-29T12:55:38;23.98;;;11.23;;
31262;SDS011;17892;52.080;9.006;2023-01-29T12:58:15;19.63;;;9.65;;
31262;SDS011;17892;52.080;9.006;2023-01-29T13:00:58;18.75;;;9.98;;
31262;SDS011;17892;52.080;9.006;2023-01-29T13:03:38;21.30;;;10.40;;
31262;SDS011;17892;52.080;9.006;2023-01-29T13:06:31;19.15;;;9.88;;
31262;SDS011;17892;52.080;9.006;2023-01-29T13:09:08;23.35;;;11.05;;
31262;SDS011;17892;52.080;9.006;2023-01-29T13:11:40;19.45;;;10.30;;
31262;SDS011;17892;52.080;9.006;2023-01-29T13:16:50;25.48;;;11.90;;
31262;SDS011;17892;52.080;9.006;2023-01-29T13:19:39;23.88;;;10.98;;
31262;SDS011;17892;52.080;9.006;2023-01-29T13:22:17;20.08;;;9.77;;
31262;SDS011;17892;52.080;9.006;2023-01-29T13:24:48;22.50;;;11.73;;
31262;SDS011;17892;52.080;9.006;2023-01-29T13:27:20;21.98;;;11.32;;
31262;SDS011;17892;52.080;9.006;2023-01-29T13:29:51;18.42;;;9.88;;
31262;SDS011;17892;52.080;9.006;2023-01-29T13:32:28;23.38;;;10.98;;
31262;SDS011;17892;52.080;9.006;2023-01-29T13:34:57;23.83;;;12.45;;
31262;SDS011;17892;52.080;9.006;2023-01-29T13:37:32;24.35;;;10.98;;
31262;SDS011;17892;52.080;9.006;2023-01-29T13:40:01;24.00;;;11.25;;
31262;SDS011;17892;52.080;9.006;2023-01-29T13:42:41;22.60;;;10.50;;
31262;SDS011;17892;52.080;9.006;2023-01-29T13:45:19;23.75;;;10.77;;
31262;SDS011;17892;52.080;9.006;2023-01-29T13:47:48;21.90;;;10.68;;
31262;SDS011;17892;52.080;9.006;2023-01-29T13:53:20;24.48;;;11.07;;
31262;SDS011;17892;52.080;9.006;2023-01-29T13:55:52;25.98;;;12.70;;
31262;SDS011;17892;52.080;9.006;2023-01-29T14:00:55;24.42;;;11.45;;
31262;SDS011;17892;52.080;9.006;2023-01-29T14:05:58;22.65;;;10.82;;
31262;SDS011;17892;52.080;9.006;2023-01-29T14:13:43;26.08;;;11.73;;
31262;SDS011;17892;52.080;9.006;2023-01-29T14:18:44;26.65;;;11.02;;
31262;SDS011;17892;52.080;9.006;2023-01-29T14:21:21;24.50;;;10.35;;
31262;SDS011;17892;52.080;9.006;2023-01-29T14:24:21;24.50;;;10.95;;
31262;SDS011;17892;52.080;9.006;2023-01-29T14:26:54;27.65;;;11.13;;
31262;SDS011;17892;52.080;9.006;2023-01-29T14:29:27;24.58;;;11.13;;
31262;SDS011;17892;52.080;9.006;2023-01-29T14:37:18;25.80;;;11.60;;
31262;SDS011;17892;52.080;9.006;2023-01-29T14:40:18;23.52;;;10.63;;
31262;SDS011;17892;52.080;9.006;2023-01-29T14:45:32;27.48;;;12.48;;
31262;SDS011;17892;52.080;9.006;2023-01-29T14:56:02;21.92;;;9.60;;
31262;SDS011;17892;52.080;9.006;2023-01-29T14:58:49;22.13;;;10.13;;
31262;SDS011;17892;52.080;9.006;2023-01-29T15:06:54;24.80;;;10.80;;
31262;SDS011;17892;52.080;9.006;2023-01-29T15:09:44;24.50;;;10.00;;
31262;SDS011;17892;52.080;9.006;2023-01-29T15:12:32;19.48;;;9.65;;
31262;SDS011;17892;52.080;9.006;2023-01-29T15:17:54;28.10;;;11.63;;
31262;SDS011;17892;52.080;9.006;2023-01-29T15:20:32;24.25;;;11.38;;
31262;SDS011;17892;52.080;9.006;2023-01-29T15:23:03;24.25;;;11.20;;
31262;SDS011;17892;52.080;9.006;2023-01-29T15:25:58;25.52;;;11.32;;
31262;SDS011;17892;52.080;9.006;2023-01-29T15:28:28;26.08;;;11.13;;
31262;SDS011;17892;52.080;9.006;2023-01-29T15:30:56;26.33;;;11.63;;
31262;SDS011;17892;52.080;9.006;2023-01-29T15:33:24;28.05;;;11.60;;
31262;SDS011;17892;52.080;9.006;2023-01-29T15:35:55;24.58;;;10.80;;
31262;SDS011;17892;52.080;9.006;2023-01-29T15:41:12;23.85;;;10.32;;
31262;SDS011;17892;52.080;9.006;2023-01-29T15:43:45;24.30;;;11.45;;
31262;SDS011;17892;52.080;9.006;2023-01-29T15:48:50;24.92;;;10.95;;
31262;SDS011;17892;52.080;9.006;2023-01-29T15:51:20;29.73;;;13.40;;
31262;SDS011;17892;52.080;9.006;2023-01-29T15:53:50;21.85;;;9.02;;
31262;SDS011;17892;52.080;9.006;2023-01-29T15:59:22;21.80;;;9.32;;
31262;SDS011;17892;52.080;9.006;2023-01-29T16:01:52;29.83;;;11.80;;
31262;SDS011;17892;52.080;9.006;2023-01-29T16:04:27;24.77;;;10.75;;
31262;SDS011;17892;52.080;9.006;2023-01-29T16:06:55;26.00;;;11.43;;
31262;SDS011;17892;52.080;9.006;2023-01-29T16:09:24;24.20;;;11.07;;
31262;SDS011;17892;52.080;9.006;2023-01-29T16:11:53;25.10;;;10.27;;
31262;SDS011;17892;52.080;9.006;2023-01-29T16:14:22;24.20;;;11.20;;
31262;SDS011;17892;52.080;9.006;2023-01-29T16:16:49;25.77;;;10.98;;
31262;SDS011;17892;52.080;9.006;2023-01-29T16:19:20;19.58;;;9.35;;
31262;SDS011;17892;52.080;9.006;2023-01-29T16:21:59;25.58;;;10.63;;
31262;SDS011;17892;52.080;9.006;2023-01-29T16:24:27;25.08;;;11.65;;
31262;SDS011;17892;52.080;9.006;2023-01-29T16:26:56;25.17;;;11.02;;
31262;SDS011;17892;52.080;9.006;2023-01-29T16:29:32;27.48;;;11.85;;
31262;SDS011;17892;52.080;9.006;2023-01-29T16:31:59;23.98;;;11.55;;
31262;SDS011;17892;52.080;9.006;2023-01-29T16:36:57;24.77;;;11.27;;
31262;SDS011;17892;52.080;9.006;2023-01-29T16:39:31;21.38;;;9.82;;
31262;SDS011;17892;52.080;9.006;2023-01-29T16:45:00;27.88;;;11.93;;
31262;SDS011;17892;52.080;9.006;2023-01-29T16:47:58;22.40;;;9.90;;
31262;SDS011;17892;52.080;9.006;2023-01-29T16:50:33;24.58;;;11.35;;
31262;SDS011;17892;52.080;9.006;2023-01-29T16:53:19;24.90;;;11.45;;
31262;SDS011;17892;52.080;9.006;2023-01-29T16:55:48;22.05;;;10.80;;
31262;SDS011;17892;52.080;9.006;2023-01-29T16:58:24;20.45;;;8.00;;
31262;SDS011;17892;52.080;9.006;2023-01-29T17:00:52;23.55;;;10.02;;
31262;SDS011;17892;52.080;9.006;2023-01-29T17:03:23;23.55;;;10.63;;
31262;SDS011;17892;52.080;9.006;2023-01-29T17:05:52;22.42;;;9.98;;
31262;SDS011;17892;52.080;9.006;2023-01-29T17:08:22;22.13;;;9.45;;
31262;SDS011;17892;52.080;9.006;2023-01-29T17:10:53;27.15;;;11.65;;
31262;SDS011;17892;52.080;9.006;2023-01-29T17:13:25;23.33;;;10.68;;
31262;SDS011;17892;52.080;9.006;2023-01-29T17:16:01;23.00;;;10.95;;
31262;SDS011;17892;52.080;9.006;2023-01-29T17:18:40;25.27;;;10.05;;
31262;SDS011;17892;52.080;9.006;2023-01-29T17:21:05;22.58;;;10.13;;
31262;SDS011;17892;52.080;9.006;2023-01-29T17:23:31;25.95;;;11.40;;
31262;SDS011;17892;52.080;9.006;2023-01-29T17:25:57;24.73;;;10.43;;
31262;SDS011;17892;52.080;9.006;2023-01-29T17:28:23;25.35;;;11.43;;
31262;SDS011;17892;52.080;9.006;2023-01-29T17:30:50;21.50;;;9.38;;
31262;SDS011;17892;52.080;9.006;2023-01-29T17:33:16;19.67;;;9.50;;
31262;SDS011;17892;52.080;9.006;2023-01-29T17:35:47;23.85;;;10.70;;
31262;SDS011;17892;52.080;9.006;2023-01-29T17:38:14;19.90;;;9.45;;
31262;SDS011;17892;52.080;9.006;2023-01-29T17:40:42;20.60;;;9.40;;